sensor_id;sensor_type;location;lat;lon;timestamp;pressure;altitude;pressure_sealevel;temperature;humidity
67931;BME280;63902;52.000;5.954;2023-08-17T00:00:50;101641.59;;;17.07;81.40
67931;BME280;63902;52.000;5.954;2023-08-17T00:01:51;101644.28;;;17.07;81.42
67931;BME280;63902;52.000;5.954;2023-08-17T00:02:53;101659.38;;;17.08;81.28
67931;BME280;63902;52.000;5.954;2023-08-17T00:03:53;101643.31;;;17.08;81.21
67931;BME280;63902;52.000;5.954;2023-08-17T00:04:54;101649.56;;;17.09;81.18
67931;BME280;63902;52.000;5.954;2023-08-17T00:05:54;101649.56;;;17.09;81.38
67931;BME280;63902;52.000;5.954;2023-08-17T00:06:55;101647.81;;;17.08;81.68
67931;BME280;63902;52.000;5.954;2023-08-17T00:07:55;101647.75;;;17.09;81.65
67931;BME280;63902;52.000;5.954;2023-08-17T00:08:56;101637.19;;;17.06;81.97
67931;BME280;63902;52.000;5.954;2023-08-17T00:09:56;101644.44;;;17.04;81.50
67931;BME280;63902;52.000;5.954;2023-08-17T00:10:57;101638.22;;;17.04;82.06
67931;BME280;63902;52.000;5.954;2023-08-17T00:11:57;101647.19;;;17.03;81.44
67931;BME280;63902;52.000;5.954;2023-08-17T00:12:58;101640.09;;;17.02;81.25
67931;BME280;63902;52.000;5.954;2023-08-17T00:13:59;101641.06;;;17.00;81.75
67931;BME280;63902;52.000;5.954;2023-08-17T00:14:59;101645.47;;;17.02;81.73
67931;BME280;63902;52.000;5.954;2023-08-17T00:16:00;101647.28;;;17.01;81.71
67931;BME280;63902;52.000;5.954;2023-08-17T00:17:00;101643.81;;;16.99;81.97
67931;BME280;63902;52.000;5.954;2023-08-17T00:18:03;101631.38;;;16.98;81.67
67931;BME280;63902;52.000;5.954;2023-08-17T00:19:03;101635.00;;;16.97;81.69
67931;BME280;63902;52.000;5.954;2023-08-17T00:20:05;101643.03;;;16.97;81.27
67931;BME280;63902;52.000;5.954;2023-08-17T00:21:06;101644.00;;;16.96;81.75
67931;BME280;63902;52.000;5.954;2023-08-17T00:22:06;101641.31;;;16.96;81.64
67931;BME280;63902;52.000;5.954;2023-08-17T00:23:07;101641.41;;;16.94;81.54
67931;BME280;63902;52.000;5.954;2023-08-17T00:24:08;101637.84;;;16.94;81.35
67931;BME280;63902;52.000;5.954;2023-08-17T00:25:08;101645.03;;;16.93;81.44
67931;BME280;63902;52.000;5.954;2023-08-17T00:26:09;101640.53;;;16.94;81.79
67931;BME280;63902;52.000;5.954;2023-08-17T00:27:09;101635.16;;;16.94;81.68
67931;BME280;63902;52.000;5.954;2023-08-17T00:28:10;101636.13;;;16.93;81.66
67931;BME280;63902;52.000;5.954;2023-08-17T00:29:10;101638.00;;;16.91;81.96
67931;BME280;63902;52.000;5.954;2023-08-17T00:30:12;101637.16;;;16.90;82.59
67931;BME280;63902;52.000;5.954;2023-08-17T00:31:12;101638.97;;;16.90;82.09
67931;BME280;63902;52.000;5.954;2023-08-17T00:32:13;101634.56;;;16.89;82.04
67931;BME280;63902;52.000;5.954;2023-08-17T00:33:14;101626.53;;;16.89;82.03
67931;BME280;63902;52.000;5.954;2023-08-17T00:34:15;101636.38;;;16.88;82.20
67931;BME280;63902;52.000;5.954;2023-08-17T00:35:16;101639.16;;;16.87;81.59
67931;BME280;63902;52.000;5.954;2023-08-17T00:36:16;101635.69;;;16.85;81.78
67931;BME280;63902;52.000;5.954;2023-08-17T00:37:17;101635.69;;;16.85;81.97
67931;BME280;63902;52.000;5.954;2023-08-17T00:38:17;101642.00;;;16.84;81.96
67931;BME280;63902;52.000;5.954;2023-08-17T00:39:18;101633.97;;;16.84;81.79
67931;BME280;63902;52.000;5.954;2023-08-17T00:40:18;101642.91;;;16.83;81.92
67931;BME280;63902;52.000;5.954;2023-08-17T00:41:19;101640.25;;;16.83;81.96
67931;BME280;63902;52.000;5.954;2023-08-17T00:42:19;101642.16;;;16.81;82.10
67931;BME280;63902;52.000;5.954;2023-08-17T00:43:20;101646.63;;;16.80;82.15
67931;BME280;63902;52.000;5.954;2023-08-17T00:44:20;101643.09;;;16.80;82.06
67931;BME280;63902;52.000;5.954;2023-08-17T00:45:22;101643.09;;;16.80;82.29
67931;BME280;63902;52.000;5.954;2023-08-17T00:46:23;101635.06;;;16.80;82.08
67931;BME280;63902;52.000;5.954;2023-08-17T00:47:24;101637.72;;;16.80;81.81
67931;BME280;63902;52.000;5.954;2023-08-17T00:48:26;101634.13;;;16.81;81.72
67931;BME280;63902;52.000;5.954;2023-08-17T00:49:27;101634.13;;;16.81;82.34
67931;BME280;63902;52.000;5.954;2023-08-17T00:50:29;101634.19;;;16.79;82.20
67931;BME280;63902;52.000;5.954;2023-08-17T00:51:29;101636.00;;;16.78;82.45
67931;BME280;63902;52.000;5.954;2023-08-17T00:52:32;101630.66;;;16.78;81.95
67931;BME280;63902;52.000;5.954;2023-08-17T00:53:33;101635.22;;;16.76;82.51
67931;BME280;63902;52.000;5.954;2023-08-17T00:54:34;101633.47;;;16.75;82.18
67931;BME280;63902;52.000;5.954;2023-08-17T00:55:34;101624.56;;;16.75;82.53
67931;BME280;63902;52.000;5.954;2023-08-17T00:56:35;101630.97;;;16.72;83.04
67931;BME280;63902;52.000;5.954;2023-08-17T00:57:36;101636.38;;;16.71;82.87
67931;BME280;63902;52.000;5.954;2023-08-17T00:58:37;101629.31;;;16.70;83.08
67931;BME280;63902;52.000;5.954;2023-08-17T00:59:37;101623.16;;;16.68;82.72
67931;BME280;63902;52.000;5.954;2023-08-17T01:00:38;101628.53;;;16.68;82.82
67931;BME280;63902;52.000;5.954;2023-08-17T01:01:39;101632.91;;;16.69;82.83
67931;BME280;63902;52.000;5.954;2023-08-17T01:02:40;101638.38;;;16.67;83.04
67931;BME280;63902;52.000;5.954;2023-08-17T01:03:42;101630.41;;;16.66;82.91
67931;BME280;63902;52.000;5.954;2023-08-17T01:04:43;101634.09;;;16.63;82.91
67931;BME280;63902;52.000;5.954;2023-08-17T01:05:43;101635.06;;;16.62;83.24
67931;BME280;63902;52.000;5.954;2023-08-17T01:06:44;101638.72;;;16.61;82.74
67931;BME280;63902;52.000;5.954;2023-08-17T01:07:44;101641.38;;;16.61;82.58
67931;BME280;63902;52.000;5.954;2023-08-17T01:08:45;101639.47;;;16.63;82.81
67931;BME280;63902;52.000;5.954;2023-08-17T01:09:46;101639.47;;;16.63;82.70
67931;BME280;63902;52.000;5.954;2023-08-17T01:10:52;101643.91;;;16.64;82.86
67931;BME280;63902;52.000;5.954;2023-08-17T01:12:02;101645.78;;;16.62;82.96
67931;BME280;63902;52.000;5.954;2023-08-17T01:13:09;101651.22;;;16.61;82.91
67931;BME280;63902;52.000;5.954;2023-08-17T01:14:21;101653.19;;;16.57;82.91
67931;BME280;63902;52.000;5.954;2023-08-17T01:15:29;101650.50;;;16.57;83.12
67931;BME280;63902;52.000;5.954;2023-08-17T01:16:37;101660.31;;;16.58;83.08
67931;BME280;63902;52.000;5.954;2023-08-17T01:17:43;101658.56;;;16.57;82.89
67931;BME280;63902;52.000;5.954;2023-08-17T01:18:46;101655.88;;;16.57;83.05
67931;BME280;63902;52.000;5.954;2023-08-17T01:19:47;101660.38;;;16.56;83.47
67931;BME280;63902;52.000;5.954;2023-08-17T01:20:50;101656.81;;;16.56;83.18
67931;BME280;63902;52.000;5.954;2023-08-17T01:21:57;101654.94;;;16.58;83.28
67931;BME280;63902;52.000;5.954;2023-08-17T01:23:04;101649.66;;;16.56;84.08
67931;BME280;63902;52.000;5.954;2023-08-17T01:24:05;101655.06;;;16.55;83.87
67931;BME280;63902;52.000;5.954;2023-08-17T01:25:06;101654.16;;;16.56;83.63
67931;BME280;63902;52.000;5.954;2023-08-17T01:26:07;101649.66;;;16.56;83.54
67931;BME280;63902;52.000;5.954;2023-08-17T01:27:08;101654.16;;;16.56;83.56
67931;BME280;63902;52.000;5.954;2023-08-17T01:28:08;101654.22;;;16.54;83.31
67931;BME280;63902;52.000;5.954;2023-08-17T01:29:09;101650.84;;;16.51;83.89
67931;BME280;63902;52.000;5.954;2023-08-17T01:30:11;101648.31;;;16.48;84.27
67931;BME280;63902;52.000;5.954;2023-08-17T01:31:16;101651.97;;;16.47;84.24
67931;BME280;63902;52.000;5.954;2023-08-17T01:32:24;101637.78;;;16.45;84.15
67931;BME280;63902;52.000;5.954;2023-08-17T01:33:28;101641.38;;;16.44;84.10
67931;BME280;63902;52.000;5.954;2023-08-17T01:34:34;101640.53;;;16.43;83.88
67931;BME280;63902;52.000;5.954;2023-08-17T01:35:41;101636.13;;;16.42;84.27
67931;BME280;63902;52.000;5.954;2023-08-17T01:36:48;101637.94;;;16.42;84.36
67931;BME280;63902;52.000;5.954;2023-08-17T01:37:51;101641.56;;;16.41;84.35
67931;BME280;63902;52.000;5.954;2023-08-17T01:38:56;101631.88;;;16.38;84.67
67931;BME280;63902;52.000;5.954;2023-08-17T01:39:57;101637.16;;;16.40;84.68
67931;BME280;63902;52.000;5.954;2023-08-17T01:41:01;101634.47;;;16.40;84.37
67931;BME280;63902;52.000;5.954;2023-08-17T01:42:02;101636.28;;;16.39;84.49
67931;BME280;63902;52.000;5.954;2023-08-17T01:43:05;101639.03;;;16.38;84.43
67931;BME280;63902;52.000;5.954;2023-08-17T01:44:06;101639.91;;;16.38;84.29
67931;BME280;63902;52.000;5.954;2023-08-17T01:45:08;101638.19;;;16.37;84.81
67931;BME280;63902;52.000;5.954;2023-08-17T01:46:08;101638.28;;;16.36;84.52
67931;BME280;63902;52.000;5.954;2023-08-17T01:47:09;101641.00;;;16.34;84.79
67931;BME280;63902;52.000;5.954;2023-08-17T01:48:10;101637.53;;;16.32;85.14
67931;BME280;63902;52.000;5.954;2023-08-17T01:49:10;101638.56;;;16.29;84.98
67931;BME280;63902;52.000;5.954;2023-08-17T01:50:11;101636.84;;;16.28;85.11
67931;BME280;63902;52.000;5.954;2023-08-17T01:51:16;101644.88;;;16.28;85.50
67931;BME280;63902;52.000;5.954;2023-08-17T01:52:17;101640.53;;;16.26;85.83
67931;BME280;63902;52.000;5.954;2023-08-17T01:53:17;101633.53;;;16.23;85.65
67931;BME280;63902;52.000;5.954;2023-08-17T01:54:19;101626.47;;;16.22;85.85
67931;BME280;63902;52.000;5.954;2023-08-17T01:55:21;101631.81;;;16.22;85.40
67931;BME280;63902;52.000;5.954;2023-08-17T01:56:21;101631.81;;;16.22;85.79
67931;BME280;63902;52.000;5.954;2023-08-17T01:57:22;101622.03;;;16.21;85.77
67931;BME280;63902;52.000;5.954;2023-08-17T01:58:22;101627.38;;;16.21;85.63
67931;BME280;63902;52.000;5.954;2023-08-17T01:59:23;101615.91;;;16.19;85.96
67931;BME280;63902;52.000;5.954;2023-08-17T02:00:23;101623.16;;;16.17;86.01
67931;BME280;63902;52.000;5.954;2023-08-17T02:01:24;101619.69;;;16.15;85.96
67931;BME280;63902;52.000;5.954;2023-08-17T02:02:24;101619.69;;;16.15;86.12
67931;BME280;63902;52.000;5.954;2023-08-17T02:03:25;101612.59;;;16.14;86.42
67931;BME280;63902;52.000;5.954;2023-08-17T02:04:25;101618.03;;;16.13;86.35
67931;BME280;63902;52.000;5.954;2023-08-17T02:05:26;101624.34;;;16.11;86.33
67931;BME280;63902;52.000;5.954;2023-08-17T02:06:26;101618.13;;;16.11;86.15
67931;BME280;63902;52.000;5.954;2023-08-17T02:07:28;101612.78;;;16.11;86.02
67931;BME280;63902;52.000;5.954;2023-08-17T02:08:29;101622.53;;;16.12;86.02
67931;BME280;63902;52.000;5.954;2023-08-17T02:09:31;101612.94;;;16.08;86.31
67931;BME280;63902;52.000;5.954;2023-08-17T02:10:31;101618.28;;;16.08;87.34
67931;BME280;63902;52.000;5.954;2023-08-17T02:11:32;101616.69;;;16.04;86.88
67931;BME280;63902;52.000;5.954;2023-08-17T02:12:32;101622.03;;;16.04;86.58
67931;BME280;63902;52.000;5.954;2023-08-17T02:13:33;101620.31;;;16.03;86.55
67931;BME280;63902;52.000;5.954;2023-08-17T02:14:33;101621.13;;;16.05;86.37
67931;BME280;63902;52.000;5.954;2023-08-17T02:15:38;101613.00;;;16.06;86.76
67931;BME280;63902;52.000;5.954;2023-08-17T02:16:38;101616.53;;;16.07;86.67
67931;BME280;63902;52.000;5.954;2023-08-17T02:17:39;101619.22;;;16.07;86.29
67931;BME280;63902;52.000;5.954;2023-08-17T02:18:39;101624.66;;;16.05;87.02
67931;BME280;63902;52.000;5.954;2023-08-17T02:19:40;101623.78;;;16.05;86.46
67931;BME280;63902;52.000;5.954;2023-08-17T02:20:40;101614.88;;;16.04;86.24
67931;BME280;63902;52.000;5.954;2023-08-17T02:21:41;101619.38;;;16.04;86.33
67931;BME280;63902;52.000;5.954;2023-08-17T02:22:41;101612.31;;;16.03;86.59
67931;BME280;63902;52.000;5.954;2023-08-17T02:23:42;101614.97;;;16.03;87.04
67931;BME280;63902;52.000;5.954;2023-08-17T02:24:44;101616.00;;;16.00;86.85
67931;BME280;63902;52.000;5.954;2023-08-17T02:25:44;101612.47;;;16.00;86.75
67931;BME280;63902;52.000;5.954;2023-08-17T02:26:45;101618.72;;;15.99;86.84
67931;BME280;63902;52.000;5.954;2023-08-17T02:27:45;101616.94;;;15.99;86.93
67931;BME280;63902;52.000;5.954;2023-08-17T02:28:46;101613.38;;;15.99;87.08
67931;BME280;63902;52.000;5.954;2023-08-17T02:29:46;101621.34;;;16.00;87.00
67931;BME280;63902;52.000;5.954;2023-08-17T02:30:47;101612.53;;;15.98;86.80
67931;BME280;63902;52.000;5.954;2023-08-17T02:31:47;101611.66;;;15.98;86.79
67931;BME280;63902;52.000;5.954;2023-08-17T02:32:48;101610.81;;;15.97;86.75
67931;BME280;63902;52.000;5.954;2023-08-17T02:33:48;101609.94;;;15.97;86.65
67931;BME280;63902;52.000;5.954;2023-08-17T02:34:49;101610.72;;;15.99;86.93
67931;BME280;63902;52.000;5.954;2023-08-17T02:35:49;101608.81;;;16.01;86.84
67931;BME280;63902;52.000;5.954;2023-08-17T02:36:50;101609.78;;;16.00;86.74
67931;BME280;63902;52.000;5.954;2023-08-17T02:37:51;101608.03;;;15.99;87.15
67931;BME280;63902;52.000;5.954;2023-08-17T02:38:51;101608.13;;;15.97;87.19
67931;BME280;63902;52.000;5.954;2023-08-17T02:39:53;101610.88;;;15.96;87.16
67931;BME280;63902;52.000;5.954;2023-08-17T02:40:54;101604.66;;;15.95;87.21
67931;BME280;63902;52.000;5.954;2023-08-17T02:41:54;101602.94;;;15.94;87.19
67931;BME280;63902;52.000;5.954;2023-08-17T02:42:55;101602.06;;;15.94;88.07
67931;BME280;63902;52.000;5.954;2023-08-17T02:43:55;101607.50;;;15.92;87.52
67931;BME280;63902;52.000;5.954;2023-08-17T02:44:56;101604.88;;;15.91;87.73
67931;BME280;63902;52.000;5.954;2023-08-17T02:45:56;101593.41;;;15.88;88.13
67931;BME280;63902;52.000;5.954;2023-08-17T02:46:57;101598.03;;;15.85;88.09
67931;BME280;63902;52.000;5.954;2023-08-17T02:47:57;101606.06;;;15.85;87.50
67931;BME280;63902;52.000;5.954;2023-08-17T02:48:58;101603.31;;;15.86;87.70
67931;BME280;63902;52.000;5.954;2023-08-17T02:49:58;101600.72;;;15.85;88.28
67931;BME280;63902;52.000;5.954;2023-08-17T02:50:59;101595.34;;;15.85;87.78
67931;BME280;63902;52.000;5.954;2023-08-17T02:51:59;101602.53;;;15.84;87.91
67931;BME280;63902;52.000;5.954;2023-08-17T02:53:00;101596.31;;;15.84;87.55
67931;BME280;63902;52.000;5.954;2023-08-17T02:54:00;101595.34;;;15.85;87.53
67931;BME280;63902;52.000;5.954;2023-08-17T02:55:03;101598.91;;;15.85;87.28
67931;BME280;63902;52.000;5.954;2023-08-17T02:56:03;101592.69;;;15.85;87.36
67931;BME280;63902;52.000;5.954;2023-08-17T02:57:04;101601.59;;;15.85;87.55
67931;BME280;63902;52.000;5.954;2023-08-17T02:58:05;101593.63;;;15.84;87.60
67931;BME280;63902;52.000;5.954;2023-08-17T02:59:05;101591.06;;;15.82;88.13
67931;BME280;63902;52.000;5.954;2023-08-17T03:00:07;101601.81;;;15.81;87.82
67931;BME280;63902;52.000;5.954;2023-08-17T03:01:08;101601.81;;;15.81;87.84
67931;BME280;63902;52.000;5.954;2023-08-17T03:02:08;101601.88;;;15.79;87.82
67931;BME280;63902;52.000;5.954;2023-08-17T03:03:09;101594.81;;;15.78;87.94
67931;BME280;63902;52.000;5.954;2023-08-17T03:04:09;101593.09;;;15.77;87.79
67931;BME280;63902;52.000;5.954;2023-08-17T03:05:10;101595.84;;;15.76;88.29
67931;BME280;63902;52.000;5.954;2023-08-17T03:06:10;101596.69;;;15.76;88.03
67931;BME280;63902;52.000;5.954;2023-08-17T03:07:11;101599.38;;;15.76;87.98
67931;BME280;63902;52.000;5.954;2023-08-17T03:08:11;101599.47;;;15.75;88.10
67931;BME280;63902;52.000;5.954;2023-08-17T03:09:12;101602.19;;;15.73;88.09
67931;BME280;63902;52.000;5.954;2023-08-17T03:10:13;101594.16;;;15.73;87.98
67931;BME280;63902;52.000;5.954;2023-08-17T03:11:14;101595.13;;;15.72;87.74
67931;BME280;63902;52.000;5.954;2023-08-17T03:12:14;101590.72;;;15.71;88.17
67931;BME280;63902;52.000;5.954;2023-08-17T03:13:15;101597.00;;;15.70;88.17
67931;BME280;63902;52.000;5.954;2023-08-17T03:14:15;101593.47;;;15.70;87.97
67931;BME280;63902;52.000;5.954;2023-08-17T03:15:16;101589.94;;;15.69;88.18
67931;BME280;63902;52.000;5.954;2023-08-17T03:16:17;101590.84;;;15.68;87.91
67931;BME280;63902;52.000;5.954;2023-08-17T03:17:17;101594.44;;;15.69;87.96
67931;BME280;63902;52.000;5.954;2023-08-17T03:18:18;101600.63;;;15.69;87.95
67931;BME280;63902;52.000;5.954;2023-08-17T03:19:18;101587.25;;;15.69;87.86
67931;BME280;63902;52.000;5.954;2023-08-17T03:20:19;101592.72;;;15.66;88.10
67931;BME280;63902;52.000;5.954;2023-08-17T03:21:19;101589.16;;;15.65;88.00
67931;BME280;63902;52.000;5.954;2023-08-17T03:22:20;101594.59;;;15.64;88.31
67931;BME280;63902;52.000;5.954;2023-08-17T03:23:20;101587.53;;;15.63;88.26
67931;BME280;63902;52.000;5.954;2023-08-17T03:24:21;101584.94;;;15.61;88.50
67931;BME280;63902;52.000;5.954;2023-08-17T03:25:22;101579.63;;;15.60;88.58
67931;BME280;63902;52.000;5.954;2023-08-17T03:26:23;101586.91;;;15.58;88.91
67931;BME280;63902;52.000;5.954;2023-08-17T03:27:24;101577.22;;;15.55;88.77
67931;BME280;63902;52.000;5.954;2023-08-17T03:28:24;101583.44;;;15.56;88.81
67931;BME280;63902;52.000;5.954;2023-08-17T03:29:25;101574.59;;;15.54;88.76
67931;BME280;63902;52.000;5.954;2023-08-17T03:30:25;101583.59;;;15.53;89.11
67931;BME280;63902;52.000;5.954;2023-08-17T03:31:26;101571.22;;;15.50;89.45
67931;BME280;63902;52.000;5.954;2023-08-17T03:32:26;101576.63;;;15.49;89.10
67931;BME280;63902;52.000;5.954;2023-08-17T03:33:27;101564.22;;;15.48;89.38
67931;BME280;63902;52.000;5.954;2023-08-17T03:34:27;101574.13;;;15.45;89.97
67931;BME280;63902;52.000;5.954;2023-08-17T03:35:28;101577.75;;;15.44;89.37
67931;BME280;63902;52.000;5.954;2023-08-17T03:36:28;101575.13;;;15.43;89.43
67931;BME280;63902;52.000;5.954;2023-08-17T03:37:29;101576.94;;;15.42;89.28
67931;BME280;63902;52.000;5.954;2023-08-17T03:38:29;101575.22;;;15.41;89.30
67931;BME280;63902;52.000;5.954;2023-08-17T03:39:30;101573.50;;;15.40;89.29
67931;BME280;63902;52.000;5.954;2023-08-17T03:40:32;101571.75;;;15.39;89.21
67931;BME280;63902;52.000;5.954;2023-08-17T03:41:32;101569.09;;;15.39;89.82
67931;BME280;63902;52.000;5.954;2023-08-17T03:42:33;101573.63;;;15.37;89.87
67931;BME280;63902;52.000;5.954;2023-08-17T03:43:33;101574.59;;;15.36;89.72
67931;BME280;63902;52.000;5.954;2023-08-17T03:44:34;101575.53;;;15.35;89.79
67931;BME280;63902;52.000;5.954;2023-08-17T03:45:34;101575.53;;;15.35;89.45
67931;BME280;63902;52.000;5.954;2023-08-17T03:46:35;101567.56;;;15.34;89.71
67931;BME280;63902;52.000;5.954;2023-08-17T03:47:35;101583.63;;;15.34;89.59
67931;BME280;63902;52.000;5.954;2023-08-17T03:48:36;101566.72;;;15.33;90.44
67931;BME280;63902;52.000;5.954;2023-08-17T03:49:36;101571.25;;;15.31;90.40
67931;BME280;63902;52.000;5.954;2023-08-17T03:50:37;101571.34;;;15.30;90.20
67931;BME280;63902;52.000;5.954;2023-08-17T03:51:37;101564.34;;;15.27;90.26
67931;BME280;63902;52.000;5.954;2023-08-17T03:52:38;101570.63;;;15.26;90.19
67931;BME280;63902;52.000;5.954;2023-08-17T03:53:38;101569.75;;;15.26;90.07
67931;BME280;63902;52.000;5.954;2023-08-17T03:54:39;101569.84;;;15.24;90.33
67931;BME280;63902;52.000;5.954;2023-08-17T03:55:45;101566.31;;;15.24;90.28
67931;BME280;63902;52.000;5.954;2023-08-17T03:56:46;101562.84;;;15.21;89.87
67931;BME280;63902;52.000;5.954;2023-08-17T03:57:46;101568.19;;;15.21;89.97
67931;BME280;63902;52.000;5.954;2023-08-17T03:58:47;101570.06;;;15.19;90.05
67931;BME280;63902;52.000;5.954;2023-08-17T03:59:47;101570.91;;;15.20;90.59
67931;BME280;63902;52.000;5.954;2023-08-17T04:00:51;101573.59;;;15.20;90.11
67931;BME280;63902;52.000;5.954;2023-08-17T04:01:52;101572.72;;;15.19;91.70
67931;BME280;63902;52.000;5.954;2023-08-17T04:02:52;101571.94;;;15.17;90.85
67931;BME280;63902;52.000;5.954;2023-08-17T04:03:53;101566.69;;;15.16;90.74
67931;BME280;63902;52.000;5.954;2023-08-17T04:04:54;101556.00;;;15.16;90.78
67931;BME280;63902;52.000;5.954;2023-08-17T04:05:54;101564.00;;;15.16;90.22
67931;BME280;63902;52.000;5.954;2023-08-17T04:06:54;101574.69;;;15.16;90.79
67931;BME280;63902;52.000;5.954;2023-08-17T04:07:55;101569.41;;;15.14;90.34
67931;BME280;63902;52.000;5.954;2023-08-17T04:08:56;101567.69;;;15.13;90.40
67931;BME280;63902;52.000;5.954;2023-08-17T04:09:56;101568.59;;;15.12;90.43
67931;BME280;63902;52.000;5.954;2023-08-17T04:10:58;101569.50;;;15.13;90.69
67931;BME280;63902;52.000;5.954;2023-08-17T04:11:58;101566.88;;;15.11;90.74
67931;BME280;63902;52.000;5.954;2023-08-17T04:12:59;101573.94;;;15.12;90.70
67931;BME280;63902;52.000;5.954;2023-08-17T04:13:59;101571.38;;;15.11;90.38
67931;BME280;63902;52.000;5.954;2023-08-17T04:15:00;101567.91;;;15.09;90.21
67931;BME280;63902;52.000;5.954;2023-08-17T04:16:00;101571.53;;;15.08;90.43
67931;BME280;63902;52.000;5.954;2023-08-17T04:17:01;101571.53;;;15.08;90.85
67931;BME280;63902;52.000;5.954;2023-08-17T04:18:02;101568.06;;;15.06;90.99
67931;BME280;63902;52.000;5.954;2023-08-17T04:19:02;101572.53;;;15.05;90.79
67931;BME280;63902;52.000;5.954;2023-08-17T04:20:04;101561.91;;;15.04;90.72
67931;BME280;63902;52.000;5.954;2023-08-17T04:21:04;101566.31;;;15.05;90.75
67931;BME280;63902;52.000;5.954;2023-08-17T04:22:05;101577.88;;;15.05;91.00
67931;BME280;63902;52.000;5.954;2023-08-17T04:23:06;101577.00;;;15.05;90.67
67931;BME280;63902;52.000;5.954;2023-08-17T04:24:06;101572.59;;;15.04;90.60
67931;BME280;63902;52.000;5.954;2023-08-17T04:25:07;101575.25;;;15.04;90.83
67931;BME280;63902;52.000;5.954;2023-08-17T04:26:09;101573.47;;;15.04;90.70
67931;BME280;63902;52.000;5.954;2023-08-17T04:27:09;101573.47;;;15.04;90.85
67931;BME280;63902;52.000;5.954;2023-08-17T04:28:10;101582.34;;;15.05;90.83
67931;BME280;63902;52.000;5.954;2023-08-17T04:29:10;101577.94;;;15.04;90.71
67931;BME280;63902;52.000;5.954;2023-08-17T04:30:11;101578.88;;;15.03;90.55
67931;BME280;63902;52.000;5.954;2023-08-17T04:31:12;101581.56;;;15.03;90.56
67931;BME280;63902;52.000;5.954;2023-08-17T04:32:14;101578.03;;;15.02;90.65
67931;BME280;63902;52.000;5.954;2023-08-17T04:33:14;101582.41;;;15.03;90.99
67931;BME280;63902;52.000;5.954;2023-08-17T04:34:15;101579.75;;;15.03;90.85
67931;BME280;63902;52.000;5.954;2023-08-17T04:35:15;101585.94;;;15.04;90.73
67931;BME280;63902;52.000;5.954;2023-08-17T04:36:16;101584.22;;;15.03;91.26
67931;BME280;63902;52.000;5.954;2023-08-17T04:37:16;101582.41;;;15.03;90.73
67931;BME280;63902;52.000;5.954;2023-08-17T04:38:17;101596.63;;;15.04;91.21
67931;BME280;63902;52.000;5.954;2023-08-17T04:39:17;101584.22;;;15.03;91.04
67931;BME280;63902;52.000;5.954;2023-08-17T04:40:18;101588.72;;;15.02;91.04
67931;BME280;63902;52.000;5.954;2023-08-17T04:41:20;101590.44;;;15.03;90.70
67931;BME280;63902;52.000;5.954;2023-08-17T04:42:20;101590.44;;;15.03;91.14
67931;BME280;63902;52.000;5.954;2023-08-17T04:43:21;101590.38;;;15.05;91.26
67931;BME280;63902;52.000;5.954;2023-08-17T04:44:21;101595.72;;;15.05;90.72
67931;BME280;63902;52.000;5.954;2023-08-17T04:45:22;101593.03;;;15.05;91.19
67931;BME280;63902;52.000;5.954;2023-08-17T04:46:22;101593.91;;;15.05;90.92
67931;BME280;63902;52.000;5.954;2023-08-17T04:47:23;101597.44;;;15.06;90.66
67931;BME280;63902;52.000;5.954;2023-08-17T04:48:23;101596.50;;;15.07;90.84
67931;BME280;63902;52.000;5.954;2023-08-17T04:49:24;101598.25;;;15.08;90.89
67931;BME280;63902;52.000;5.954;2023-08-17T04:50:24;101599.16;;;15.07;90.81
67931;BME280;63902;52.000;5.954;2023-08-17T04:51:25;101596.50;;;15.07;90.87
67931;BME280;63902;52.000;5.954;2023-08-17T04:52:25;101600.91;;;15.08;91.04
67931;BME280;63902;52.000;5.954;2023-08-17T04:53:26;101601.84;;;15.07;90.93
67931;BME280;63902;52.000;5.954;2023-08-17T04:54:26;101604.44;;;15.08;90.78
67931;BME280;63902;52.000;5.954;2023-08-17T04:55:27;101599.09;;;15.08;90.96
67931;BME280;63902;52.000;5.954;2023-08-17T04:56:29;101594.63;;;15.09;90.79
67931;BME280;63902;52.000;5.954;2023-08-17T04:57:29;101601.72;;;15.10;91.02
67931;BME280;63902;52.000;5.954;2023-08-17T04:58:30;101600.81;;;15.09;90.91
67931;BME280;63902;52.000;5.954;2023-08-17T04:59:31;101599.09;;;15.08;91.18
67931;BME280;63902;52.000;5.954;2023-08-17T05:00:31;101600.81;;;15.09;90.96
67931;BME280;63902;52.000;5.954;2023-08-17T05:01:32;101599.97;;;15.09;90.91
67931;BME280;63902;52.000;5.954;2023-08-17T05:02:32;101600.81;;;15.09;91.19
67931;BME280;63902;52.000;5.954;2023-08-17T05:03:33;101605.25;;;15.10;91.13
67931;BME280;63902;52.000;5.954;2023-08-17T05:04:35;101596.38;;;15.10;91.49
67931;BME280;63902;52.000;5.954;2023-08-17T05:05:35;101599.03;;;15.10;91.63
67931;BME280;63902;52.000;5.954;2023-08-17T05:06:36;101599.97;;;15.09;91.31
67931;BME280;63902;52.000;5.954;2023-08-17T05:07:36;101598.09;;;15.11;91.11
67931;BME280;63902;52.000;5.954;2023-08-17T05:08:37;101599.81;;;15.12;91.12
67931;BME280;63902;52.000;5.954;2023-08-17T05:09:37;101598.94;;;15.11;91.04
67931;BME280;63902;52.000;5.954;2023-08-17T05:10:38;101591.03;;;15.10;90.90
67931;BME280;63902;52.000;5.954;2023-08-17T05:11:40;101590.88;;;15.13;91.09
67931;BME280;63902;52.000;5.954;2023-08-17T05:12:40;101590.88;;;15.13;90.78
67931;BME280;63902;52.000;5.954;2023-08-17T05:13:41;101586.41;;;15.13;91.08
67931;BME280;63902;52.000;5.954;2023-08-17T05:14:41;101590.78;;;15.14;90.99
67931;BME280;63902;52.000;5.954;2023-08-17T05:15:42;101591.59;;;15.16;90.90
67931;BME280;63902;52.000;5.954;2023-08-17T05:16:42;101593.25;;;15.19;90.99
67931;BME280;63902;52.000;5.954;2023-08-17T05:17:43;101589.63;;;15.20;90.83
67931;BME280;63902;52.000;5.954;2023-08-17T05:18:43;101593.97;;;15.22;90.82
67931;BME280;63902;52.000;5.954;2023-08-17T05:19:44;101595.78;;;15.22;90.71